PWSweather.com
Personal Weather Stations
Station Observations
GRD01
Warsaw, LesznoPL 05-084

WarsawLesznoPL 05-084

Lat: 52.257404, Lon: 20.564847

Elevation: 298

Station Type: WH3080

http://pogoda.kampinos.waw.pl

High Low Average
Temperature 71.8°F22.1°C 45.5°F7.5°C 59.1°F15.1°C
Dew Point 52.1°F11.2°C 40.3°F4.6°C 47.0°F8.3°C
Winds 14.5 mph 23.3 kmh 2.2 mph 3.5 kmh 7.0 mph E11.3 kmh E
Wind Gusts 24.4 mph39.3 kmh 4.5 mph7.2 kmh 13.0 mph20.9 kmh
Humidity 84% 49% 66%
Pressure 29.68 in1005.1 mb 29.60 in1002.4 mb -
Precipitation 0.00 in0.0 mm - -
Hour Temp Dew Point Humidity Winds Wind Gusts Pressure Precip Precip Rate Daily Precip Total
12:00 AM 50.0°F10.0°C 42.7°F5.9°C 76% 3.1 mph NE5.0 kmh NE 7.6 mph12.2 kmh 29.66 in1004.4 mb 0.00 in0.0 mm 0.00 in0.0 mm 0.00 in0.0 mm
12:15 AM 49.8°F9.9°C 42.6°F5.9°C 76% 4.5 mph NE7.2 kmh NE 9.2 mph14.8 kmh 29.67 in1004.7 mb 0.00 in0.0 mm 0.00 in0.0 mm 0.00 in0.0 mm
12:30 AM 49.6°F9.8°C 42.4°F5.8°C 76% 3.8 mph NE6.1 kmh NE 6.9 mph11.1 kmh 29.66 in1004.4 mb 0.00 in0.0 mm 0.00 in0.0 mm 0.00 in0.0 mm
12:45 AM 49.3°F9.6°C 42.4°F5.8°C 77% 3.8 mph NE6.1 kmh NE 6.9 mph11.1 kmh 29.66 in1004.4 mb 0.00 in0.0 mm 0.00 in0.0 mm 0.00 in0.0 mm
01:00 AM 49.1°F9.5°C 42.2°F5.7°C 77% 4.5 mph NE7.2 kmh NE 7.6 mph12.2 kmh 29.65 in1004.1 mb 0.00 in0.0 mm 0.00 in0.0 mm 0.00 in0.0 mm
01:15 AM 48.9°F9.4°C 42.4°F5.8°C 78% 3.1 mph NE5.0 kmh NE 6.0 mph9.7 kmh 29.65 in1004.1 mb 0.00 in0.0 mm 0.00 in0.0 mm 0.00 in0.0 mm
01:30 AM 48.7°F9.3°C 42.2°F5.7°C 78% 3.1 mph NE5.0 kmh NE 8.3 mph13.4 kmh 29.65 in1004.1 mb 0.00 in0.0 mm 0.00 in0.0 mm 0.00 in0.0 mm
01:45 AM 48.6°F9.2°C 42.0°F5.6°C 78% 3.8 mph NE6.1 kmh NE 7.6 mph12.2 kmh 29.65 in1004.1 mb 0.00 in0.0 mm 0.00 in0.0 mm 0.00 in0.0 mm
02:00 AM 48.4°F9.1°C 41.8°F5.4°C 78% 3.8 mph ENE6.1 kmh ENE 7.6 mph12.2 kmh 29.64 in1003.7 mb 0.00 in0.0 mm 0.00 in0.0 mm 0.00 in0.0 mm
02:15 AM 48.2°F9.0°C 42.0°F5.6°C 79% 2.2 mph NE3.5 kmh NE 7.6 mph12.2 kmh 29.65 in1004.1 mb 0.00 in0.0 mm 0.00 in0.0 mm 0.00 in0.0 mm
02:30 AM 48.2°F9.0°C 42.0°F5.6°C 79% 3.8 mph NE6.1 kmh NE 8.3 mph13.4 kmh 29.65 in1004.1 mb 0.00 in0.0 mm 0.00 in0.0 mm 0.00 in0.0 mm
02:45 AM 48.0°F8.9°C 41.8°F5.4°C 79% 2.2 mph NE3.5 kmh NE 6.0 mph9.7 kmh 29.65 in1004.1 mb 0.00 in0.0 mm 0.00 in0.0 mm 0.00 in0.0 mm
03:00 AM 47.8°F8.8°C 42.0°F5.6°C 80% 3.1 mph NE5.0 kmh NE 6.0 mph9.7 kmh 29.65 in1004.1 mb 0.00 in0.0 mm 0.00 in0.0 mm 0.00 in0.0 mm
03:15 AM 47.5°F8.6°C 41.6°F5.3°C 80% 3.8 mph NE6.1 kmh NE 6.0 mph9.7 kmh 29.65 in1004.1 mb 0.00 in0.0 mm 0.00 in0.0 mm 0.00 in0.0 mm
03:30 AM 47.3°F8.5°C 41.4°F5.2°C 80% 3.8 mph NE6.1 kmh NE 6.9 mph11.1 kmh 29.65 in1004.1 mb 0.00 in0.0 mm 0.00 in0.0 mm 0.00 in0.0 mm
03:45 AM 47.1°F8.4°C 41.3°F5.2°C 80% 2.2 mph NE3.5 kmh NE 6.9 mph11.1 kmh 29.65 in1004.1 mb 0.00 in0.0 mm 0.00 in0.0 mm 0.00 in0.0 mm
04:00 AM 46.9°F8.3°C 41.4°F5.2°C 81% 3.8 mph NE6.1 kmh NE 5.4 mph8.7 kmh 29.64 in1003.7 mb 0.00 in0.0 mm 0.00 in0.0 mm 0.00 in0.0 mm
04:15 AM 46.8°F8.2°C 41.2°F5.1°C 81% 2.2 mph NE3.5 kmh NE 6.9 mph11.1 kmh 29.65 in1004.1 mb 0.00 in0.0 mm 0.00 in0.0 mm 0.00 in0.0 mm
04:30 AM 46.6°F8.1°C 41.1°F5.1°C 81% 3.1 mph NE5.0 kmh NE 6.9 mph11.1 kmh 29.64 in1003.7 mb 0.00 in0.0 mm 0.00 in0.0 mm 0.00 in0.0 mm
04:45 AM 46.2°F7.9°C 40.7°F4.8°C 81% 3.1 mph NE5.0 kmh NE 6.9 mph11.1 kmh 29.65 in1004.1 mb 0.00 in0.0 mm 0.00 in0.0 mm 0.00 in0.0 mm
05:00 AM 46.0°F7.8°C 40.9°F4.9°C 82% 3.1 mph NE5.0 kmh NE 5.4 mph8.7 kmh 29.65 in1004.1 mb 0.00 in0.0 mm 0.00 in0.0 mm 0.00 in0.0 mm
05:15 AM 45.5°F7.5°C 40.3°F4.6°C 82% 3.8 mph NE6.1 kmh NE 4.5 mph7.2 kmh 29.66 in1004.4 mb 0.00 in0.0 mm 0.00 in0.0 mm 0.00 in0.0 mm
05:30 AM 45.7°F7.6°C 40.8°F4.9°C 83% 3.1 mph NE5.0 kmh NE 6.0 mph9.7 kmh 29.66 in1004.4 mb 0.00 in0.0 mm 0.00 in0.0 mm 0.00 in0.0 mm
05:45 AM 46.0°F7.8°C 41.5°F5.3°C 84% 5.4 mph NE8.7 kmh NE 7.6 mph12.2 kmh 29.66 in1004.4 mb 0.00 in0.0 mm 0.00 in0.0 mm 0.00 in0.0 mm
06:00 AM 46.6°F8.1°C 42.0°F5.6°C 84% 3.8 mph NE6.1 kmh NE 6.9 mph11.1 kmh 29.66 in1004.4 mb 0.00 in0.0 mm 0.00 in0.0 mm 0.00 in0.0 mm
06:15 AM 47.1°F8.4°C 42.5°F5.8°C 84% 3.1 mph NE5.0 kmh NE 6.9 mph11.1 kmh 29.67 in1004.7 mb 0.00 in0.0 mm 0.00 in0.0 mm 0.00 in0.0 mm
06:30 AM 47.8°F8.8°C 42.9°F6.1°C 83% 3.8 mph NE6.1 kmh NE 8.3 mph13.4 kmh 29.67 in1004.7 mb 0.00 in0.0 mm 0.00 in0.0 mm 0.00 in0.0 mm
06:45 AM 48.6°F9.2°C 43.3°F6.3°C 82% 9.8 mph NE15.8 kmh NE 13.0 mph20.9 kmh 29.67 in1004.7 mb 0.00 in0.0 mm 0.00 in0.0 mm 0.00 in0.0 mm
07:00 AM 49.1°F9.5°C 43.5°F6.4°C 81% 5.4 mph NE8.7 kmh NE 9.8 mph15.8 kmh 29.66 in1004.4 mb 0.00 in0.0 mm 0.00 in0.0 mm 0.00 in0.0 mm
07:15 AM 50.4°F10.2°C 44.4°F6.9°C 80% 6.9 mph E11.1 kmh E 13.0 mph20.9 kmh 29.66 in1004.4 mb 0.00 in0.0 mm 0.00 in0.0 mm 0.00 in0.0 mm
07:30 AM 51.6°F10.9°C 45.3°F7.4°C 79% 3.8 mph ESE6.1 kmh ESE 15.9 mph25.6 kmh 29.67 in1004.7 mb 0.00 in0.0 mm 0.00 in0.0 mm 0.00 in0.0 mm
07:45 AM 52.7°F11.5°C 45.3°F7.4°C 76% 13.6 mph ESE21.9 kmh ESE 18.3 mph29.5 kmh 29.68 in1005.1 mb 0.00 in0.0 mm 0.00 in0.0 mm 0.00 in0.0 mm
08:00 AM 53.4°F11.9°C 45.3°F7.4°C 74% 13.0 mph E20.9 kmh E 16.8 mph27.0 kmh 29.67 in1004.7 mb 0.00 in0.0 mm 0.00 in0.0 mm 0.00 in0.0 mm
08:15 AM 54.3°F12.4°C 45.8°F7.7°C 73% 12.1 mph E19.5 kmh E 20.6 mph33.2 kmh 29.67 in1004.7 mb 0.00 in0.0 mm 0.00 in0.0 mm 0.00 in0.0 mm
08:30 AM 55.4°F13.0°C 45.8°F7.7°C 70% 7.6 mph ESE12.2 kmh ESE 18.3 mph29.5 kmh 29.67 in1004.7 mb 0.00 in0.0 mm 0.00 in0.0 mm 0.00 in0.0 mm
08:45 AM 56.7°F13.7°C 46.6°F8.1°C 69% 7.6 mph E12.2 kmh E 15.9 mph25.6 kmh 29.68 in1005.1 mb 0.00 in0.0 mm 0.00 in0.0 mm 0.00 in0.0 mm
09:00 AM 58.3°F14.6°C 47.0°F8.3°C 66% 9.2 mph E14.8 kmh E 16.8 mph27.0 kmh 29.67 in1004.7 mb 0.00 in0.0 mm 0.00 in0.0 mm 0.00 in0.0 mm
09:15 AM 58.8°F14.9°C 46.7°F8.2°C 64% 12.1 mph ENE19.5 kmh ENE 15.9 mph25.6 kmh 29.67 in1004.7 mb 0.00 in0.0 mm 0.00 in0.0 mm 0.00 in0.0 mm
09:30 AM 59.9°F15.5°C 47.7°F8.7°C 64% 13.0 mph ESE20.9 kmh ESE 15.2 mph24.5 kmh 29.67 in1004.7 mb 0.00 in0.0 mm 0.00 in0.0 mm 0.00 in0.0 mm
09:45 AM 60.6°F15.9°C 47.9°F8.8°C 63% 6.0 mph ESE9.7 kmh ESE 14.5 mph23.3 kmh 29.67 in1004.7 mb 0.00 in0.0 mm 0.00 in0.0 mm 0.00 in0.0 mm
10:00 AM 61.5°F16.4°C 48.4°F9.1°C 62% 4.5 mph SE7.2 kmh SE 15.2 mph24.5 kmh 29.66 in1004.4 mb 0.00 in0.0 mm 0.00 in0.0 mm 0.00 in0.0 mm
10:15 AM 62.1°F16.7°C 48.4°F9.1°C 61% 9.8 mph ESE15.8 kmh ESE 14.5 mph23.3 kmh 29.65 in1004.1 mb 0.00 in0.0 mm 0.00 in0.0 mm 0.00 in0.0 mm
10:30 AM 62.6°F17.0°C 49.0°F9.4°C 61% 8.3 mph ENE13.4 kmh ENE 13.6 mph21.9 kmh 29.65 in1004.1 mb 0.00 in0.0 mm 0.00 in0.0 mm 0.00 in0.0 mm
10:45 AM 63.5°F17.5°C 48.0°F8.9°C 57% 8.3 mph E13.4 kmh E 13.6 mph21.9 kmh 29.65 in1004.1 mb 0.00 in0.0 mm 0.00 in0.0 mm 0.00 in0.0 mm
11:00 AM 64.4°F18.0°C 48.4°F9.1°C 56% 5.4 mph E8.7 kmh E 13.6 mph21.9 kmh 29.65 in1004.1 mb 0.00 in0.0 mm 0.00 in0.0 mm 0.00 in0.0 mm
11:15 AM 65.3°F18.5°C 48.7°F9.3°C 55% 11.4 mph ENE18.3 kmh ENE 15.9 mph25.6 kmh 29.64 in1003.7 mb 0.00 in0.0 mm 0.00 in0.0 mm 0.00 in0.0 mm
11:30 AM 66.2°F19.0°C 49.1°F9.5°C 54% 8.3 mph ESE13.4 kmh ESE 14.5 mph23.3 kmh 29.65 in1004.1 mb 0.00 in0.0 mm 0.00 in0.0 mm 0.00 in0.0 mm
11:45 AM 66.7°F19.3°C 49.1°F9.5°C 53% 8.3 mph E13.4 kmh E 16.8 mph27.0 kmh 29.65 in1004.1 mb 0.00 in0.0 mm 0.00 in0.0 mm 0.00 in0.0 mm
12:00 PM 67.3°F19.6°C 49.6°F9.8°C 53% 13.6 mph E21.9 kmh E 17.4 mph28.0 kmh 29.65 in1004.1 mb 0.00 in0.0 mm 0.00 in0.0 mm 0.00 in0.0 mm
12:15 PM 67.8°F19.9°C 49.5°F9.7°C 52% 14.5 mph E23.3 kmh E 21.3 mph34.3 kmh 29.64 in1003.7 mb 0.00 in0.0 mm 0.00 in0.0 mm 0.00 in0.0 mm
12:30 PM 68.2°F20.1°C 49.9°F9.9°C 52% 5.4 mph E8.7 kmh E 16.8 mph27.0 kmh 29.64 in1003.7 mb 0.00 in0.0 mm 0.00 in0.0 mm 0.00 in0.0 mm
12:45 PM 68.9°F20.5°C 50.5°F10.3°C 52% 10.7 mph SE17.2 kmh SE 17.4 mph28.0 kmh 29.65 in1004.1 mb 0.00 in0.0 mm 0.00 in0.0 mm 0.00 in0.0 mm
01:00 PM 69.6°F20.9°C 50.7°F10.4°C 51% 12.1 mph ESE19.5 kmh ESE 20.6 mph33.2 kmh 29.63 in1003.4 mb 0.00 in0.0 mm 0.00 in0.0 mm 0.00 in0.0 mm
01:15 PM 70.0°F21.1°C 51.0°F10.6°C 51% 12.1 mph ESE19.5 kmh ESE 15.9 mph25.6 kmh 29.63 in1003.4 mb 0.00 in0.0 mm 0.00 in0.0 mm 0.00 in0.0 mm
01:30 PM 70.3°F21.3°C 50.8°F10.4°C 50% 12.1 mph E19.5 kmh E 19.0 mph30.6 kmh 29.62 in1003.0 mb 0.00 in0.0 mm 0.00 in0.0 mm 0.00 in0.0 mm
01:45 PM 70.9°F21.6°C 51.3°F10.7°C 50% 12.1 mph ESE19.5 kmh ESE 16.8 mph27.0 kmh 29.62 in1003.0 mb 0.00 in0.0 mm 0.00 in0.0 mm 0.00 in0.0 mm
02:00 PM 71.4°F21.9°C 51.3°F10.7°C 49% 7.6 mph SE12.2 kmh SE 19.0 mph30.6 kmh 29.62 in1003.0 mb 0.00 in0.0 mm 0.00 in0.0 mm 0.00 in0.0 mm
02:15 PM 71.4°F21.9°C 51.3°F10.7°C 49% 9.2 mph E14.8 kmh E 24.4 mph39.3 kmh 29.61 in1002.7 mb 0.00 in0.0 mm 0.00 in0.0 mm 0.00 in0.0 mm
02:30 PM 71.2°F21.8°C 51.6°F10.9°C 50% 11.4 mph E18.3 kmh E 19.7 mph31.7 kmh 29.61 in1002.7 mb 0.00 in0.0 mm 0.00 in0.0 mm 0.00 in0.0 mm
02:45 PM 71.6°F22.0°C 52.0°F11.1°C 50% 13.0 mph E20.9 kmh E 19.0 mph30.6 kmh 29.61 in1002.7 mb 0.00 in0.0 mm 0.00 in0.0 mm 0.00 in0.0 mm
03:00 PM 71.8°F22.1°C 51.6°F10.9°C 49% 9.8 mph ESE15.8 kmh ESE 19.7 mph31.7 kmh 29.60 in1002.4 mb 0.00 in0.0 mm 0.00 in0.0 mm 0.00 in0.0 mm
03:15 PM 71.4°F21.9°C 51.8°F11.0°C 50% 13.0 mph ESE20.9 kmh ESE 19.7 mph31.7 kmh 29.61 in1002.7 mb 0.00 in0.0 mm 0.00 in0.0 mm 0.00 in0.0 mm
03:30 PM 71.8°F22.1°C 52.1°F11.2°C 50% 10.7 mph E17.2 kmh E 18.3 mph29.5 kmh 29.61 in1002.7 mb 0.00 in0.0 mm 0.00 in0.0 mm 0.00 in0.0 mm
03:45 PM 71.6°F22.0°C 52.0°F11.1°C 50% 9.8 mph ESE15.8 kmh ESE 19.0 mph30.6 kmh 29.60 in1002.4 mb 0.00 in0.0 mm 0.00 in0.0 mm 0.00 in0.0 mm
04:00 PM 71.4°F21.9°C 51.8°F11.0°C 50% 7.6 mph E12.2 kmh E 15.9 mph25.6 kmh 29.60 in1002.4 mb 0.00 in0.0 mm 0.00 in0.0 mm 0.00 in0.0 mm
04:15 PM 71.1°F21.7°C 51.5°F10.8°C 50% 9.8 mph ESE15.8 kmh ESE 16.8 mph27.0 kmh 29.60 in1002.4 mb 0.00 in0.0 mm 0.00 in0.0 mm 0.00 in0.0 mm
04:30 PM 70.7°F21.5°C 51.7°F10.9°C 51% 8.3 mph E13.4 kmh E 18.3 mph29.5 kmh 29.60 in1002.4 mb 0.00 in0.0 mm 0.00 in0.0 mm 0.00 in0.0 mm
04:45 PM 70.5°F21.4°C 51.5°F10.8°C 51% 8.3 mph E13.4 kmh E 15.2 mph24.5 kmh 29.60 in1002.4 mb 0.00 in0.0 mm 0.00 in0.0 mm 0.00 in0.0 mm
05:00 PM 70.5°F21.4°C 51.5°F10.8°C 51% 8.3 mph E13.4 kmh E 15.2 mph24.5 kmh 29.60 in1002.4 mb 0.00 in0.0 mm 0.00 in0.0 mm 0.00 in0.0 mm
05:15 PM 69.6°F20.9°C 50.7°F10.4°C 51% 9.8 mph ENE15.8 kmh ENE 13.6 mph21.9 kmh 29.61 in1002.7 mb 0.00 in0.0 mm 0.00 in0.0 mm 0.00 in0.0 mm
05:30 PM 68.7°F20.4°C 50.4°F10.2°C 52% 8.3 mph ENE13.4 kmh ENE 17.4 mph28.0 kmh 29.60 in1002.4 mb 0.00 in0.0 mm 0.00 in0.0 mm 0.00 in0.0 mm
05:45 PM 67.6°F19.8°C 49.9°F9.9°C 53% 9.8 mph NE15.8 kmh NE 12.1 mph19.5 kmh 29.61 in1002.7 mb 0.00 in0.0 mm 0.00 in0.0 mm 0.00 in0.0 mm
06:00 PM 66.9°F19.4°C 49.7°F9.8°C 54% 6.9 mph ENE11.1 kmh ENE 15.9 mph25.6 kmh 29.61 in1002.7 mb 0.00 in0.0 mm 0.00 in0.0 mm 0.00 in0.0 mm
06:15 PM 66.2°F19.0°C 49.6°F9.8°C 55% 5.4 mph NE8.7 kmh NE 10.7 mph17.2 kmh 29.61 in1002.7 mb 0.00 in0.0 mm 0.00 in0.0 mm 0.00 in0.0 mm
06:30 PM 65.7°F18.7°C 49.5°F9.7°C 56% 5.4 mph E8.7 kmh E 13.0 mph20.9 kmh 29.62 in1003.0 mb 0.00 in0.0 mm 0.00 in0.0 mm 0.00 in0.0 mm
06:45 PM 65.1°F18.4°C 49.5°F9.7°C 57% 6.9 mph NE11.1 kmh NE 12.1 mph19.5 kmh 29.62 in1003.0 mb 0.00 in0.0 mm 0.00 in0.0 mm 0.00 in0.0 mm
07:00 PM 64.6°F18.1°C 49.0°F9.4°C 57% 4.5 mph NE7.2 kmh NE 9.2 mph14.8 kmh 29.62 in1003.0 mb 0.00 in0.0 mm 0.00 in0.0 mm 0.00 in0.0 mm
07:15 PM 64.2°F17.9°C 49.1°F9.5°C 58% 6.9 mph NE11.1 kmh NE 9.2 mph14.8 kmh 29.63 in1003.4 mb 0.00 in0.0 mm 0.00 in0.0 mm 0.00 in0.0 mm
07:30 PM 63.7°F17.6°C 49.5°F9.7°C 60% 6.9 mph NE11.1 kmh NE 10.7 mph17.2 kmh 29.63 in1003.4 mb 0.00 in0.0 mm 0.00 in0.0 mm 0.00 in0.0 mm
07:45 PM 63.1°F17.3°C 50.3°F10.2°C 63% 3.8 mph ENE6.1 kmh ENE 9.8 mph15.8 kmh 29.63 in1003.4 mb 0.00 in0.0 mm 0.00 in0.0 mm 0.00 in0.0 mm
08:00 PM 62.6°F17.0°C 50.2°F10.1°C 64% 6.9 mph NE11.1 kmh NE 10.7 mph17.2 kmh 29.63 in1003.4 mb 0.00 in0.0 mm 0.00 in0.0 mm 0.00 in0.0 mm
08:15 PM 62.2°F16.8°C 49.9°F9.9°C 64% 7.6 mph NE12.2 kmh NE 12.1 mph19.5 kmh 29.63 in1003.4 mb 0.00 in0.0 mm 0.00 in0.0 mm 0.00 in0.0 mm
08:30 PM 62.1°F16.7°C 49.7°F9.8°C 64% 5.4 mph ENE8.7 kmh ENE 13.6 mph21.9 kmh 29.63 in1003.4 mb 0.00 in0.0 mm 0.00 in0.0 mm 0.00 in0.0 mm
08:45 PM 61.7°F16.5°C 49.4°F9.7°C 64% 6.0 mph E9.7 kmh E 15.2 mph24.5 kmh 29.63 in1003.4 mb 0.00 in0.0 mm 0.00 in0.0 mm 0.00 in0.0 mm
09:00 PM 61.3°F16.3°C 49.5°F9.7°C 65% 6.0 mph ENE9.7 kmh ENE 13.0 mph20.9 kmh 29.63 in1003.4 mb 0.00 in0.0 mm 0.00 in0.0 mm 0.00 in0.0 mm
09:15 PM 61.0°F16.1°C 49.1°F9.5°C 65% 12.1 mph E19.5 kmh E 15.9 mph25.6 kmh 29.64 in1003.7 mb 0.00 in0.0 mm 0.00 in0.0 mm 0.00 in0.0 mm
09:30 PM 60.6°F15.9°C 48.8°F9.3°C 65% 9.8 mph E15.8 kmh E 13.0 mph20.9 kmh 29.63 in1003.4 mb 0.00 in0.0 mm 0.00 in0.0 mm 0.00 in0.0 mm
09:45 PM 60.3°F15.7°C 48.9°F9.4°C 66% 9.2 mph E14.8 kmh E 15.2 mph24.5 kmh 29.65 in1004.1 mb 0.00 in0.0 mm 0.00 in0.0 mm 0.00 in0.0 mm
10:00 PM 59.9°F15.5°C 48.5°F9.2°C 66% 9.8 mph E15.8 kmh E 14.5 mph23.3 kmh 29.65 in1004.1 mb 0.00 in0.0 mm 0.00 in0.0 mm 0.00 in0.0 mm
10:15 PM 59.5°F15.3°C 48.6°F9.2°C 67% 9.2 mph ENE14.8 kmh ENE 15.2 mph24.5 kmh 29.64 in1003.7 mb 0.00 in0.0 mm 0.00 in0.0 mm 0.00 in0.0 mm
10:30 PM 59.2°F15.1°C 48.6°F9.2°C 68% 6.0 mph NE9.7 kmh NE 13.6 mph21.9 kmh 29.64 in1003.7 mb 0.00 in0.0 mm 0.00 in0.0 mm 0.00 in0.0 mm
10:45 PM 58.6°F14.8°C 48.1°F8.9°C 68% 6.9 mph NE11.1 kmh NE 13.0 mph20.9 kmh 29.65 in1004.1 mb 0.00 in0.0 mm 0.00 in0.0 mm 0.00 in0.0 mm
11:00 PM 58.5°F14.7°C 48.3°F9.1°C 69% 8.3 mph E13.4 kmh E 13.6 mph21.9 kmh 29.64 in1003.7 mb 0.00 in0.0 mm 0.00 in0.0 mm 0.00 in0.0 mm
11:15 PM 58.1°F14.5°C 48.4°F9.1°C 70% 9.2 mph E14.8 kmh E 16.8 mph27.0 kmh 29.64 in1003.7 mb 0.00 in0.0 mm 0.00 in0.0 mm 0.00 in0.0 mm
11:30 PM 57.7°F14.3°C 48.0°F8.9°C 70% 8.3 mph ENE13.4 kmh ENE 13.0 mph20.9 kmh 29.65 in1004.1 mb 0.00 in0.0 mm 0.00 in0.0 mm 0.00 in0.0 mm
11:45 PM 57.4°F14.1°C 47.7°F8.7°C 70% 6.0 mph E9.7 kmh E 13.0 mph20.9 kmh 29.64 in1003.7 mb 0.00 in0.0 mm 0.00 in0.0 mm 0.00 in0.0 mm